Terminal Aerodrome Forecast
Issued by NWS

Home | Current Version | Previous Version | Graphics & Text | Print | Product List | Glossary Off
Versions: 1 2 3 4 5 6 7 8 9 10 11 12 13 14

000
FTUS43 KDDC 221120
TAFHYS
TAF
KHYS 221120Z 2212/2312 36008KT P6SM OVC080
     FM222100 02010KT P6SM SCT110=

USA.gov is the U.S. government's official web portal to all federal, state and local government web resources and services.